sensor_id;sensor_type;location;lat;lon;timestamp;temperature;humidity
31783;DHT22;18351;47.560;9.708;2023-12-14T00:01:15;7.50;99.90
31783;DHT22;18351;47.560;9.708;2023-12-14T00:03:42;7.60;99.90
31783;DHT22;18351;47.560;9.708;2023-12-14T00:06:12;7.50;99.90
31783;DHT22;18351;47.560;9.708;2023-12-14T00:08:38;7.60;99.90
31783;DHT22;18351;47.560;9.708;2023-12-14T00:11:05;7.60;99.90
31783;DHT22;18351;47.560;9.708;2023-12-14T00:13:32;7.60;99.90
31783;DHT22;18351;47.560;9.708;2023-12-14T00:15:57;7.60;99.90
31783;DHT22;18351;47.560;9.708;2023-12-14T00:18:23;7.60;99.90
31783;DHT22;18351;47.560;9.708;2023-12-14T00:20:48;7.60;99.90
31783;DHT22;18351;47.560;9.708;2023-12-14T00:23:14;7.60;99.90
31783;DHT22;18351;47.560;9.708;2023-12-14T00:25:40;7.60;99.90
31783;DHT22;18351;47.560;9.708;2023-12-14T00:28:05;7.60;99.90
31783;DHT22;18351;47.560;9.708;2023-12-14T00:30:31;7.60;99.90
31783;DHT22;18351;47.560;9.708;2023-12-14T00:32:56;7.60;99.90
31783;DHT22;18351;47.560;9.708;2023-12-14T00:35:22;7.60;99.90
31783;DHT22;18351;47.560;9.708;2023-12-14T00:37:48;7.60;99.90
31783;DHT22;18351;47.560;9.708;2023-12-14T00:40:13;7.60;99.90
31783;DHT22;18351;47.560;9.708;2023-12-14T00:42:39;7.60;99.90
31783;DHT22;18351;47.560;9.708;2023-12-14T00:45:04;7.60;99.90
31783;DHT22;18351;47.560;9.708;2023-12-14T00:47:30;7.60;99.90
31783;DHT22;18351;47.560;9.708;2023-12-14T00:49:56;7.60;99.90
31783;DHT22;18351;47.560;9.708;2023-12-14T00:52:43;7.60;99.90
31783;DHT22;18351;47.560;9.708;2023-12-14T00:55:08;7.60;99.90
31783;DHT22;18351;47.560;9.708;2023-12-14T00:57:34;7.60;99.90
31783;DHT22;18351;47.560;9.708;2023-12-14T00:59:59;7.50;99.90
31783;DHT22;18351;47.560;9.708;2023-12-14T01:02:25;7.50;99.90
31783;DHT22;18351;47.560;9.708;2023-12-14T01:04:50;7.50;99.90
31783;DHT22;18351;47.560;9.708;2023-12-14T01:07:16;7.40;99.90
31783;DHT22;18351;47.560;9.708;2023-12-14T01:09:41;7.40;99.90
31783;DHT22;18351;47.560;9.708;2023-12-14T01:12:07;7.40;99.90
31783;DHT22;18351;47.560;9.708;2023-12-14T01:14:32;7.40;99.90
31783;DHT22;18351;47.560;9.708;2023-12-14T01:16:59;7.40;99.90
31783;DHT22;18351;47.560;9.708;2023-12-14T01:19:24;7.40;99.90
31783;DHT22;18351;47.560;9.708;2023-12-14T01:21:51;7.40;99.90
31783;DHT22;18351;47.560;9.708;2023-12-14T01:24:16;7.40;99.90
31783;DHT22;18351;47.560;9.708;2023-12-14T01:26:42;7.30;99.90
31783;DHT22;18351;47.560;9.708;2023-12-14T01:29:07;7.30;99.90
31783;DHT22;18351;47.560;9.708;2023-12-14T01:31:33;7.30;99.90
31783;DHT22;18351;47.560;9.708;2023-12-14T01:33:58;7.30;99.90
31783;DHT22;18351;47.560;9.708;2023-12-14T01:36:25;7.30;99.90
31783;DHT22;18351;47.560;9.708;2023-12-14T01:38:52;7.30;99.90
31783;DHT22;18351;47.560;9.708;2023-12-14T01:41:18;7.30;99.90
31783;DHT22;18351;47.560;9.708;2023-12-14T01:43:44;7.30;99.90
31783;DHT22;18351;47.560;9.708;2023-12-14T01:46:10;7.30;99.90
31783;DHT22;18351;47.560;9.708;2023-12-14T01:48:36;7.30;99.90
31783;DHT22;18351;47.560;9.708;2023-12-14T01:51:02;7.20;99.90
31783;DHT22;18351;47.560;9.708;2023-12-14T01:53:28;7.20;99.90
31783;DHT22;18351;47.560;9.708;2023-12-14T01:55:53;7.20;99.90
31783;DHT22;18351;47.560;9.708;2023-12-14T01:58:19;7.20;99.90
31783;DHT22;18351;47.560;9.708;2023-12-14T02:01:18;7.20;99.90
31783;DHT22;18351;47.560;9.708;2023-12-14T02:03:46;7.10;99.90
31783;DHT22;18351;47.560;9.708;2023-12-14T02:06:13;7.10;99.90
31783;DHT22;18351;47.560;9.708;2023-12-14T02:08:39;7.10;99.90
31783;DHT22;18351;47.560;9.708;2023-12-14T02:11:05;7.10;99.90
31783;DHT22;18351;47.560;9.708;2023-12-14T02:13:30;7.10;99.90
31783;DHT22;18351;47.560;9.708;2023-12-14T02:15:56;7.10;99.90
31783;DHT22;18351;47.560;9.708;2023-12-14T02:18:21;7.10;99.90
31783;DHT22;18351;47.560;9.708;2023-12-14T02:20:47;7.10;99.90
31783;DHT22;18351;47.560;9.708;2023-12-14T02:23:12;7.00;99.90
31783;DHT22;18351;47.560;9.708;2023-12-14T02:25:38;7.10;99.90
31783;DHT22;18351;47.560;9.708;2023-12-14T02:28:04;6.90;99.90
31783;DHT22;18351;47.560;9.708;2023-12-14T02:30:29;6.90;99.90
31783;DHT22;18351;47.560;9.708;2023-12-14T02:32:55;7.00;99.90
31783;DHT22;18351;47.560;9.708;2023-12-14T02:35:20;7.00;99.90
31783;DHT22;18351;47.560;9.708;2023-12-14T02:37:48;7.00;99.90
31783;DHT22;18351;47.560;9.708;2023-12-14T02:40:13;6.90;99.90
31783;DHT22;18351;47.560;9.708;2023-12-14T02:42:39;6.90;99.90
31783;DHT22;18351;47.560;9.708;2023-12-14T02:45:06;6.90;99.90
31783;DHT22;18351;47.560;9.708;2023-12-14T02:47:32;6.90;99.90
31783;DHT22;18351;47.560;9.708;2023-12-14T02:49:58;6.80;99.90
31783;DHT22;18351;47.560;9.708;2023-12-14T02:52:23;6.80;99.90
31783;DHT22;18351;47.560;9.708;2023-12-14T02:54:49;6.80;99.90
31783;DHT22;18351;47.560;9.708;2023-12-14T02:57:14;6.80;99.90
31783;DHT22;18351;47.560;9.708;2023-12-14T02:59:40;6.80;99.90
31783;DHT22;18351;47.560;9.708;2023-12-14T03:02:06;6.80;99.90
31783;DHT22;18351;47.560;9.708;2023-12-14T03:04:31;6.80;99.90
31783;DHT22;18351;47.560;9.708;2023-12-14T03:06:57;6.90;99.90
31783;DHT22;18351;47.560;9.708;2023-12-14T03:09:23;6.90;99.90
31783;DHT22;18351;47.560;9.708;2023-12-14T03:11:49;6.90;99.90
31783;DHT22;18351;47.560;9.708;2023-12-14T03:14:14;6.90;99.90
31783;DHT22;18351;47.560;9.708;2023-12-14T03:16:40;6.90;99.90
31783;DHT22;18351;47.560;9.708;2023-12-14T03:19:05;6.80;99.90
31783;DHT22;18351;47.560;9.708;2023-12-14T03:21:31;6.90;99.90
31783;DHT22;18351;47.560;9.708;2023-12-14T03:23:57;6.90;99.90
31783;DHT22;18351;47.560;9.708;2023-12-14T03:26:22;6.90;99.90
31783;DHT22;18351;47.560;9.708;2023-12-14T03:28:48;6.90;99.90
31783;DHT22;18351;47.560;9.708;2023-12-14T03:31:13;6.90;99.90
31783;DHT22;18351;47.560;9.708;2023-12-14T03:33:40;6.90;99.90
31783;DHT22;18351;47.560;9.708;2023-12-14T03:36:06;6.90;99.90
31783;DHT22;18351;47.560;9.708;2023-12-14T03:38:33;6.90;99.90
31783;DHT22;18351;47.560;9.708;2023-12-14T03:40:58;6.90;99.90
31783;DHT22;18351;47.560;9.708;2023-12-14T03:43:24;6.80;99.90
31783;DHT22;18351;47.560;9.708;2023-12-14T03:45:50;6.80;99.90
31783;DHT22;18351;47.560;9.708;2023-12-14T03:48:15;6.80;99.90
31783;DHT22;18351;47.560;9.708;2023-12-14T03:50:41;6.80;99.90
31783;DHT22;18351;47.560;9.708;2023-12-14T03:53:06;6.80;99.90
31783;DHT22;18351;47.560;9.708;2023-12-14T03:55:33;6.80;99.90
31783;DHT22;18351;47.560;9.708;2023-12-14T03:57:58;6.80;99.90
31783;DHT22;18351;47.560;9.708;2023-12-14T04:00:24;6.70;99.90
31783;DHT22;18351;47.560;9.708;2023-12-14T04:02:50;6.70;99.90
31783;DHT22;18351;47.560;9.708;2023-12-14T04:05:16;6.70;99.90
31783;DHT22;18351;47.560;9.708;2023-12-14T04:07:42;6.70;99.90
31783;DHT22;18351;47.560;9.708;2023-12-14T04:10:08;6.70;99.90
31783;DHT22;18351;47.560;9.708;2023-12-14T04:12:35;6.70;99.90
31783;DHT22;18351;47.560;9.708;2023-12-14T04:15:02;6.60;99.90
31783;DHT22;18351;47.560;9.708;2023-12-14T04:17:27;6.60;99.90
31783;DHT22;18351;47.560;9.708;2023-12-14T04:19:53;6.50;99.90
31783;DHT22;18351;47.560;9.708;2023-12-14T04:22:19;6.50;99.90
31783;DHT22;18351;47.560;9.708;2023-12-14T04:24:44;6.50;99.90
31783;DHT22;18351;47.560;9.708;2023-12-14T04:27:10;6.60;99.90
31783;DHT22;18351;47.560;9.708;2023-12-14T04:29:35;6.60;99.90
31783;DHT22;18351;47.560;9.708;2023-12-14T04:32:01;6.60;99.90
31783;DHT22;18351;47.560;9.708;2023-12-14T04:34:26;6.60;99.90
31783;DHT22;18351;47.560;9.708;2023-12-14T04:36:52;6.50;99.90
31783;DHT22;18351;47.560;9.708;2023-12-14T04:39:23;6.50;99.90
31783;DHT22;18351;47.560;9.708;2023-12-14T04:41:50;6.40;99.90
31783;DHT22;18351;47.560;9.708;2023-12-14T04:44:15;6.40;99.90
31783;DHT22;18351;47.560;9.708;2023-12-14T04:46:41;6.40;99.90
31783;DHT22;18351;47.560;9.708;2023-12-14T04:49:06;6.40;99.90
31783;DHT22;18351;47.560;9.708;2023-12-14T04:51:32;6.40;99.90
31783;DHT22;18351;47.560;9.708;2023-12-14T04:53:58;6.40;99.90
31783;DHT22;18351;47.560;9.708;2023-12-14T04:56:23;6.40;99.90
31783;DHT22;18351;47.560;9.708;2023-12-14T04:58:49;6.50;99.90
31783;DHT22;18351;47.560;9.708;2023-12-14T05:01:14;6.50;99.90
31783;DHT22;18351;47.560;9.708;2023-12-14T05:03:40;6.50;99.90
31783;DHT22;18351;47.560;9.708;2023-12-14T05:06:06;6.60;99.90
31783;DHT22;18351;47.560;9.708;2023-12-14T05:08:32;6.60;99.90
31783;DHT22;18351;47.560;9.708;2023-12-14T05:10:58;6.60;99.90
31783;DHT22;18351;47.560;9.708;2023-12-14T05:13:24;6.60;99.90
31783;DHT22;18351;47.560;9.708;2023-12-14T05:15:51;6.60;99.90
31783;DHT22;18351;47.560;9.708;2023-12-14T05:18:17;6.60;99.90
31783;DHT22;18351;47.560;9.708;2023-12-14T05:20:43;6.50;99.90
31783;DHT22;18351;47.560;9.708;2023-12-14T05:23:08;6.50;99.90
31783;DHT22;18351;47.560;9.708;2023-12-14T05:25:34;6.40;99.90
31783;DHT22;18351;47.560;9.708;2023-12-14T05:27:59;6.40;99.90
31783;DHT22;18351;47.560;9.708;2023-12-14T05:30:25;6.40;99.90
31783;DHT22;18351;47.560;9.708;2023-12-14T05:32:50;6.40;99.90
31783;DHT22;18351;47.560;9.708;2023-12-14T05:35:16;6.40;99.90
31783;DHT22;18351;47.560;9.708;2023-12-14T05:37:42;6.40;99.90
31783;DHT22;18351;47.560;9.708;2023-12-14T05:40:09;6.40;99.90
31783;DHT22;18351;47.560;9.708;2023-12-14T05:42:34;6.40;99.90
31783;DHT22;18351;47.560;9.708;2023-12-14T05:45:00;6.30;99.90
31783;DHT22;18351;47.560;9.708;2023-12-14T05:47:26;6.30;99.90
31783;DHT22;18351;47.560;9.708;2023-12-14T05:49:52;6.30;99.90
31783;DHT22;18351;47.560;9.708;2023-12-14T05:52:17;6.30;99.90
31783;DHT22;18351;47.560;9.708;2023-12-14T05:54:43;6.30;99.90
31783;DHT22;18351;47.560;9.708;2023-12-14T05:57:09;6.30;99.90
31783;DHT22;18351;47.560;9.708;2023-12-14T05:59:34;6.30;99.90
31783;DHT22;18351;47.560;9.708;2023-12-14T06:02:00;6.30;99.90
31783;DHT22;18351;47.560;9.708;2023-12-14T06:04:27;6.40;99.90
31783;DHT22;18351;47.560;9.708;2023-12-14T06:06:53;6.40;99.90
31783;DHT22;18351;47.560;9.708;2023-12-14T06:09:19;6.40;99.90
31783;DHT22;18351;47.560;9.708;2023-12-14T06:11:47;6.40;99.90
31783;DHT22;18351;47.560;9.708;2023-12-14T06:14:12;6.40;99.90
31783;DHT22;18351;47.560;9.708;2023-12-14T06:16:38;6.40;99.90
31783;DHT22;18351;47.560;9.708;2023-12-14T06:19:03;6.40;99.90
31783;DHT22;18351;47.560;9.708;2023-12-14T06:21:29;6.50;99.90
31783;DHT22;18351;47.560;9.708;2023-12-14T06:23:57;6.40;99.90
31783;DHT22;18351;47.560;9.708;2023-12-14T06:26:24;6.40;99.90
31783;DHT22;18351;47.560;9.708;2023-12-14T06:28:50;6.50;99.90
31783;DHT22;18351;47.560;9.708;2023-12-14T06:31:17;6.40;99.90
31783;DHT22;18351;47.560;9.708;2023-12-14T06:33:43;6.50;99.90
31783;DHT22;18351;47.560;9.708;2023-12-14T06:36:09;6.40;99.90
31783;DHT22;18351;47.560;9.708;2023-12-14T06:38:34;6.50;99.90
31783;DHT22;18351;47.560;9.708;2023-12-14T06:41:03;6.40;99.90
31783;DHT22;18351;47.560;9.708;2023-12-14T06:43:28;6.50;99.90
31783;DHT22;18351;47.560;9.708;2023-12-14T06:45:54;6.50;99.90
31783;DHT22;18351;47.560;9.708;2023-12-14T06:48:20;6.50;99.90
31783;DHT22;18351;47.560;9.708;2023-12-14T06:50:45;6.50;99.90
31783;DHT22;18351;47.560;9.708;2023-12-14T06:53:11;6.50;99.90
31783;DHT22;18351;47.560;9.708;2023-12-14T06:55:37;6.50;99.90
31783;DHT22;18351;47.560;9.708;2023-12-14T06:58:02;6.50;99.90
31783;DHT22;18351;47.560;9.708;2023-12-14T07:00:28;6.50;99.90
31783;DHT22;18351;47.560;9.708;2023-12-14T07:02:55;6.50;99.90
31783;DHT22;18351;47.560;9.708;2023-12-14T07:05:20;6.50;99.90
31783;DHT22;18351;47.560;9.708;2023-12-14T07:07:46;6.50;99.90
31783;DHT22;18351;47.560;9.708;2023-12-14T07:10:12;6.50;99.90
31783;DHT22;18351;47.560;9.708;2023-12-14T07:12:37;6.50;99.90
31783;DHT22;18351;47.560;9.708;2023-12-14T07:15:03;6.50;99.90
31783;DHT22;18351;47.560;9.708;2023-12-14T07:17:29;6.50;99.90
31783;DHT22;18351;47.560;9.708;2023-12-14T07:19:54;6.50;99.90
31783;DHT22;18351;47.560;9.708;2023-12-14T07:22:20;6.60;99.90
31783;DHT22;18351;47.560;9.708;2023-12-14T07:24:46;6.50;99.90
31783;DHT22;18351;47.560;9.708;2023-12-14T07:27:11;6.60;99.90
31783;DHT22;18351;47.560;9.708;2023-12-14T07:29:37;6.60;99.90
31783;DHT22;18351;47.560;9.708;2023-12-14T07:32:02;6.50;99.90
31783;DHT22;18351;47.560;9.708;2023-12-14T07:34:28;6.60;99.90
31783;DHT22;18351;47.560;9.708;2023-12-14T07:36:54;6.50;99.90
31783;DHT22;18351;47.560;9.708;2023-12-14T07:39:20;6.50;99.90
31783;DHT22;18351;47.560;9.708;2023-12-14T07:41:45;6.50;99.90
31783;DHT22;18351;47.560;9.708;2023-12-14T07:44:11;6.50;99.90
31783;DHT22;18351;47.560;9.708;2023-12-14T07:46:37;6.60;99.90
31783;DHT22;18351;47.560;9.708;2023-12-14T07:49:06;6.60;99.90
31783;DHT22;18351;47.560;9.708;2023-12-14T07:51:32;6.60;99.90
31783;DHT22;18351;47.560;9.708;2023-12-14T07:53:58;6.70;99.90
31783;DHT22;18351;47.560;9.708;2023-12-14T07:56:23;6.70;99.90
31783;DHT22;18351;47.560;9.708;2023-12-14T07:58:52;6.70;99.90
31783;DHT22;18351;47.560;9.708;2023-12-14T08:01:18;6.70;99.90
31783;DHT22;18351;47.560;9.708;2023-12-14T08:03:43;6.70;99.90
31783;DHT22;18351;47.560;9.708;2023-12-14T08:06:09;6.80;99.90
31783;DHT22;18351;47.560;9.708;2023-12-14T08:08:34;6.80;99.90
31783;DHT22;18351;47.560;9.708;2023-12-14T08:11:01;6.80;99.90
31783;DHT22;18351;47.560;9.708;2023-12-14T08:13:26;6.90;99.90
31783;DHT22;18351;47.560;9.708;2023-12-14T08:15:52;7.00;99.90
31783;DHT22;18351;47.560;9.708;2023-12-14T08:18:17;7.00;99.90
31783;DHT22;18351;47.560;9.708;2023-12-14T08:20:43;7.00;99.90
31783;DHT22;18351;47.560;9.708;2023-12-14T08:23:09;7.10;99.90
31783;DHT22;18351;47.560;9.708;2023-12-14T08:25:34;7.00;99.90
31783;DHT22;18351;47.560;9.708;2023-12-14T08:28:00;7.00;99.90
31783;DHT22;18351;47.560;9.708;2023-12-14T08:30:25;7.00;99.90
31783;DHT22;18351;47.560;9.708;2023-12-14T08:32:51;7.00;99.90
31783;DHT22;18351;47.560;9.708;2023-12-14T08:35:16;6.90;99.90
31783;DHT22;18351;47.560;9.708;2023-12-14T08:37:42;6.90;99.90
31783;DHT22;18351;47.560;9.708;2023-12-14T08:40:09;6.90;99.90
31783;DHT22;18351;47.560;9.708;2023-12-14T08:42:35;7.00;99.90
31783;DHT22;18351;47.560;9.708;2023-12-14T08:45:00;7.00;99.90
31783;DHT22;18351;47.560;9.708;2023-12-14T08:47:26;7.00;99.90
31783;DHT22;18351;47.560;9.708;2023-12-14T08:49:52;7.00;99.90
31783;DHT22;18351;47.560;9.708;2023-12-14T08:52:18;7.00;99.90
31783;DHT22;18351;47.560;9.708;2023-12-14T08:54:44;7.10;99.90
31783;DHT22;18351;47.560;9.708;2023-12-14T08:57:10;7.00;99.90
31783;DHT22;18351;47.560;9.708;2023-12-14T08:59:36;7.00;99.90
31783;DHT22;18351;47.560;9.708;2023-12-14T09:02:01;7.00;99.90
31783;DHT22;18351;47.560;9.708;2023-12-14T09:04:27;7.00;99.90
31783;DHT22;18351;47.560;9.708;2023-12-14T09:06:53;7.00;99.90
31783;DHT22;18351;47.560;9.708;2023-12-14T09:09:19;7.00;99.90
31783;DHT22;18351;47.560;9.708;2023-12-14T09:11:44;7.00;99.90
31783;DHT22;18351;47.560;9.708;2023-12-14T09:14:10;7.00;99.90
31783;DHT22;18351;47.560;9.708;2023-12-14T09:16:36;7.00;99.90
31783;DHT22;18351;47.560;9.708;2023-12-14T09:19:01;7.00;99.90
31783;DHT22;18351;47.560;9.708;2023-12-14T09:21:27;7.00;99.90
31783;DHT22;18351;47.560;9.708;2023-12-14T09:23:52;7.00;99.90
31783;DHT22;18351;47.560;9.708;2023-12-14T09:26:19;7.10;99.90
31783;DHT22;18351;47.560;9.708;2023-12-14T09:28:44;7.10;99.90
31783;DHT22;18351;47.560;9.708;2023-12-14T09:31:10;7.10;99.90
31783;DHT22;18351;47.560;9.708;2023-12-14T09:33:36;7.10;99.90
31783;DHT22;18351;47.560;9.708;2023-12-14T09:36:02;7.10;99.90
31783;DHT22;18351;47.560;9.708;2023-12-14T09:38:28;7.10;99.90
31783;DHT22;18351;47.560;9.708;2023-12-14T09:40:53;7.10;99.90
31783;DHT22;18351;47.560;9.708;2023-12-14T09:43:19;7.10;99.90
31783;DHT22;18351;47.560;9.708;2023-12-14T09:45:46;7.10;99.90
31783;DHT22;18351;47.560;9.708;2023-12-14T09:48:13;7.10;99.90
31783;DHT22;18351;47.560;9.708;2023-12-14T09:50:40;7.10;99.90
31783;DHT22;18351;47.560;9.708;2023-12-14T09:53:06;7.10;99.90
31783;DHT22;18351;47.560;9.708;2023-12-14T09:55:33;7.00;99.90
31783;DHT22;18351;47.560;9.708;2023-12-14T09:57:59;7.00;99.90
31783;DHT22;18351;47.560;9.708;2023-12-14T10:00:35;7.10;99.90
31783;DHT22;18351;47.560;9.708;2023-12-14T10:05:48;7.10;99.90
31783;DHT22;18351;47.560;9.708;2023-12-14T10:08:15;7.10;99.90
31783;DHT22;18351;47.560;9.708;2023-12-14T10:10:42;7.10;99.90
31783;DHT22;18351;47.560;9.708;2023-12-14T10:13:08;7.10;99.90
31783;DHT22;18351;47.560;9.708;2023-12-14T10:15:47;7.10;99.90
31783;DHT22;18351;47.560;9.708;2023-12-14T10:18:21;7.10;99.90
31783;DHT22;18351;47.560;9.708;2023-12-14T10:20:47;7.10;99.90
31783;DHT22;18351;47.560;9.708;2023-12-14T10:23:13;7.10;99.90
31783;DHT22;18351;47.560;9.708;2023-12-14T10:25:38;7.00;99.90
31783;DHT22;18351;47.560;9.708;2023-12-14T10:28:04;7.00;99.90
31783;DHT22;18351;47.560;9.708;2023-12-14T10:30:30;7.00;99.90
31783;DHT22;18351;47.560;9.708;2023-12-14T10:32:56;7.00;99.90
31783;DHT22;18351;47.560;9.708;2023-12-14T10:35:23;7.00;99.90
31783;DHT22;18351;47.560;9.708;2023-12-14T10:37:52;7.00;99.90
31783;DHT22;18351;47.560;9.708;2023-12-14T10:40:18;7.00;99.90
31783;DHT22;18351;47.560;9.708;2023-12-14T10:42:44;7.10;99.90
31783;DHT22;18351;47.560;9.708;2023-12-14T10:45:15;7.10;99.90
31783;DHT22;18351;47.560;9.708;2023-12-14T10:47:46;7.10;99.90
31783;DHT22;18351;47.560;9.708;2023-12-14T10:50:13;7.10;99.90
31783;DHT22;18351;47.560;9.708;2023-12-14T10:52:39;7.10;99.90
31783;DHT22;18351;47.560;9.708;2023-12-14T10:55:13;7.10;99.90
31783;DHT22;18351;47.560;9.708;2023-12-14T10:57:40;7.00;99.90
31783;DHT22;18351;47.560;9.708;2023-12-14T11:00:06;7.10;99.90
31783;DHT22;18351;47.560;9.708;2023-12-14T11:02:42;7.00;99.90
31783;DHT22;18351;47.560;9.708;2023-12-14T11:05:12;7.10;99.90
31783;DHT22;18351;47.560;9.708;2023-12-14T11:07:53;7.10;99.90
31783;DHT22;18351;47.560;9.708;2023-12-14T11:10:22;7.00;99.90
31783;DHT22;18351;47.560;9.708;2023-12-14T11:13:02;7.00;99.90
31783;DHT22;18351;47.560;9.708;2023-12-14T11:15:29;7.00;99.90
31783;DHT22;18351;47.560;9.708;2023-12-14T11:23:18;6.90;99.90
31783;DHT22;18351;47.560;9.708;2023-12-14T11:26:00;6.90;99.90
31783;DHT22;18351;47.560;9.708;2023-12-14T11:28:28;7.00;99.90
31783;DHT22;18351;47.560;9.708;2023-12-14T11:30:54;7.00;99.90
31783;DHT22;18351;47.560;9.708;2023-12-14T11:33:21;7.10;99.90
31783;DHT22;18351;47.560;9.708;2023-12-14T11:35:47;7.10;99.90
31783;DHT22;18351;47.560;9.708;2023-12-14T11:38:12;7.10;99.90
31783;DHT22;18351;47.560;9.708;2023-12-14T11:40:45;7.20;99.90
31783;DHT22;18351;47.560;9.708;2023-12-14T11:43:11;7.10;99.90
31783;DHT22;18351;47.560;9.708;2023-12-14T11:45:39;7.10;99.90
31783;DHT22;18351;47.560;9.708;2023-12-14T11:48:10;7.20;99.90
31783;DHT22;18351;47.560;9.708;2023-12-14T11:50:38;7.10;99.90
31783;DHT22;18351;47.560;9.708;2023-12-14T11:53:04;7.20;99.90
31783;DHT22;18351;47.560;9.708;2023-12-14T11:55:35;7.20;99.90
31783;DHT22;18351;47.560;9.708;2023-12-14T11:58:00;7.20;99.90
31783;DHT22;18351;47.560;9.708;2023-12-14T12:00:27;7.30;99.90
31783;DHT22;18351;47.560;9.708;2023-12-14T12:03:14;7.30;99.90
31783;DHT22;18351;47.560;9.708;2023-12-14T12:05:44;7.30;99.90
31783;DHT22;18351;47.560;9.708;2023-12-14T12:08:12;7.30;99.90
31783;DHT22;18351;47.560;9.708;2023-12-14T12:10:39;7.40;99.90
31783;DHT22;18351;47.560;9.708;2023-12-14T12:13:15;7.40;99.90
31783;DHT22;18351;47.560;9.708;2023-12-14T12:15:41;7.40;99.90
31783;DHT22;18351;47.560;9.708;2023-12-14T12:18:09;7.40;99.90
31783;DHT22;18351;47.560;9.708;2023-12-14T12:20:35;7.50;99.90
31783;DHT22;18351;47.560;9.708;2023-12-14T12:23:01;7.50;99.90
31783;DHT22;18351;47.560;9.708;2023-12-14T12:25:27;7.50;99.90
31783;DHT22;18351;47.560;9.708;2023-12-14T12:27:56;7.50;99.90
31783;DHT22;18351;47.560;9.708;2023-12-14T12:30:22;7.60;99.90
31783;DHT22;18351;47.560;9.708;2023-12-14T12:32:49;7.60;99.90
31783;DHT22;18351;47.560;9.708;2023-12-14T12:35:16;7.60;99.90
31783;DHT22;18351;47.560;9.708;2023-12-14T12:37:41;7.60;99.90
31783;DHT22;18351;47.560;9.708;2023-12-14T12:40:08;7.60;99.90
31783;DHT22;18351;47.560;9.708;2023-12-14T12:42:34;7.60;99.90
31783;DHT22;18351;47.560;9.708;2023-12-14T12:44:59;7.70;99.90
31783;DHT22;18351;47.560;9.708;2023-12-14T12:47:26;7.70;99.90
31783;DHT22;18351;47.560;9.708;2023-12-14T12:49:51;7.70;99.90
31783;DHT22;18351;47.560;9.708;2023-12-14T12:52:17;7.70;99.90
31783;DHT22;18351;47.560;9.708;2023-12-14T12:54:42;7.70;99.90
31783;DHT22;18351;47.560;9.708;2023-12-14T12:57:08;7.70;99.90
31783;DHT22;18351;47.560;9.708;2023-12-14T12:59:33;7.70;99.90
31783;DHT22;18351;47.560;9.708;2023-12-14T13:01:59;7.70;99.90
31783;DHT22;18351;47.560;9.708;2023-12-14T13:04:25;7.70;99.90
31783;DHT22;18351;47.560;9.708;2023-12-14T13:06:51;7.70;99.90
31783;DHT22;18351;47.560;9.708;2023-12-14T13:09:18;7.70;99.90
31783;DHT22;18351;47.560;9.708;2023-12-14T13:11:47;7.70;99.90
31783;DHT22;18351;47.560;9.708;2023-12-14T13:14:12;7.70;99.90
31783;DHT22;18351;47.560;9.708;2023-12-14T13:16:40;7.80;99.90
31783;DHT22;18351;47.560;9.708;2023-12-14T13:19:06;7.70;99.90
31783;DHT22;18351;47.560;9.708;2023-12-14T13:21:32;7.70;99.90
31783;DHT22;18351;47.560;9.708;2023-12-14T13:24:02;7.70;99.90
31783;DHT22;18351;47.560;9.708;2023-12-14T13:26:28;7.70;99.90
31783;DHT22;18351;47.560;9.708;2023-12-14T13:28:54;7.70;99.90
31783;DHT22;18351;47.560;9.708;2023-12-14T13:31:20;7.70;99.90
31783;DHT22;18351;47.560;9.708;2023-12-14T13:33:47;7.70;99.90
31783;DHT22;18351;47.560;9.708;2023-12-14T13:36:13;7.70;99.90
31783;DHT22;18351;47.560;9.708;2023-12-14T13:38:40;7.70;99.90
31783;DHT22;18351;47.560;9.708;2023-12-14T13:41:07;7.70;99.90
31783;DHT22;18351;47.560;9.708;2023-12-14T13:43:33;7.70;99.90
31783;DHT22;18351;47.560;9.708;2023-12-14T13:45:58;7.70;99.90
31783;DHT22;18351;47.560;9.708;2023-12-14T13:48:25;7.70;99.90
31783;DHT22;18351;47.560;9.708;2023-12-14T13:50:50;7.70;99.90
31783;DHT22;18351;47.560;9.708;2023-12-14T13:53:16;7.70;99.90
31783;DHT22;18351;47.560;9.708;2023-12-14T13:55:42;7.80;99.90
31783;DHT22;18351;47.560;9.708;2023-12-14T13:58:07;7.80;99.90
31783;DHT22;18351;47.560;9.708;2023-12-14T14:00:33;7.80;99.90
31783;DHT22;18351;47.560;9.708;2023-12-14T14:03:00;7.90;99.90
31783;DHT22;18351;47.560;9.708;2023-12-14T14:05:25;7.90;99.90
31783;DHT22;18351;47.560;9.708;2023-12-14T14:07:52;7.90;99.90
31783;DHT22;18351;47.560;9.708;2023-12-14T14:10:18;7.90;99.90
31783;DHT22;18351;47.560;9.708;2023-12-14T14:12:44;7.80;99.90
31783;DHT22;18351;47.560;9.708;2023-12-14T14:15:09;7.80;99.90
31783;DHT22;18351;47.560;9.708;2023-12-14T14:17:35;7.80;99.90
31783;DHT22;18351;47.560;9.708;2023-12-14T14:20:01;7.80;99.90
31783;DHT22;18351;47.560;9.708;2023-12-14T14:22:26;7.80;99.90
31783;DHT22;18351;47.560;9.708;2023-12-14T14:24:52;7.80;99.90
31783;DHT22;18351;47.560;9.708;2023-12-14T14:27:17;7.80;99.90
31783;DHT22;18351;47.560;9.708;2023-12-14T14:29:43;7.80;99.90
31783;DHT22;18351;47.560;9.708;2023-12-14T14:32:08;7.80;99.90
31783;DHT22;18351;47.560;9.708;2023-12-14T14:34:34;7.80;99.90
31783;DHT22;18351;47.560;9.708;2023-12-14T14:37:01;7.80;99.90
31783;DHT22;18351;47.560;9.708;2023-12-14T14:39:26;7.80;99.90
31783;DHT22;18351;47.560;9.708;2023-12-14T14:41:52;7.90;99.90
31783;DHT22;18351;47.560;9.708;2023-12-14T14:44:18;7.90;99.90
31783;DHT22;18351;47.560;9.708;2023-12-14T14:46:44;7.90;99.90
31783;DHT22;18351;47.560;9.708;2023-12-14T14:49:10;7.90;99.90
31783;DHT22;18351;47.560;9.708;2023-12-14T14:51:35;7.90;99.90
31783;DHT22;18351;47.560;9.708;2023-12-14T14:54:01;7.80;99.90
31783;DHT22;18351;47.560;9.708;2023-12-14T14:56:26;7.80;99.90
31783;DHT22;18351;47.560;9.708;2023-12-14T14:58:52;7.80;99.90
31783;DHT22;18351;47.560;9.708;2023-12-14T15:01:18;7.80;99.90
31783;DHT22;18351;47.560;9.708;2023-12-14T15:03:44;7.80;99.90
31783;DHT22;18351;47.560;9.708;2023-12-14T15:06:10;7.80;99.90
31783;DHT22;18351;47.560;9.708;2023-12-14T15:08:35;7.80;99.90
31783;DHT22;18351;47.560;9.708;2023-12-14T15:11:01;7.70;99.90
31783;DHT22;18351;47.560;9.708;2023-12-14T15:13:27;7.70;99.90
31783;DHT22;18351;47.560;9.708;2023-12-14T15:15:54;7.70;99.90
31783;DHT22;18351;47.560;9.708;2023-12-14T15:18:21;7.60;99.90
31783;DHT22;18351;47.560;9.708;2023-12-14T15:20:46;7.60;99.90
31783;DHT22;18351;47.560;9.708;2023-12-14T15:23:14;7.60;99.90
31783;DHT22;18351;47.560;9.708;2023-12-14T15:25:40;7.60;99.90
31783;DHT22;18351;47.560;9.708;2023-12-14T15:28:06;7.70;99.90
31783;DHT22;18351;47.560;9.708;2023-12-14T15:30:32;7.60;99.90
31783;DHT22;18351;47.560;9.708;2023-12-14T15:32:57;7.60;99.90
31783;DHT22;18351;47.560;9.708;2023-12-14T15:35:23;7.60;99.90
31783;DHT22;18351;47.560;9.708;2023-12-14T15:37:48;7.50;99.90
31783;DHT22;18351;47.560;9.708;2023-12-14T15:40:14;7.50;99.90
31783;DHT22;18351;47.560;9.708;2023-12-14T15:42:40;7.50;99.90
31783;DHT22;18351;47.560;9.708;2023-12-14T15:45:06;7.50;99.90
31783;DHT22;18351;47.560;9.708;2023-12-14T15:47:32;7.50;99.90